createdAt,value
2022-12-15T00:02:19.490Z,30.30
2022-12-15T00:05:05.612Z,27.60
2022-12-15T00:07:51.261Z,26.40
2022-12-15T00:10:36.829Z,27.90
2022-12-15T00:13:22.373Z,28.97
2022-12-15T00:16:08.067Z,29.53
2022-12-15T00:18:53.338Z,28.73
2022-12-15T00:21:38.572Z,27.83
2022-12-15T00:24:24.250Z,26.57
2022-12-15T00:27:09.651Z,29.67
2022-12-15T00:29:54.996Z,28.90
2022-12-15T00:32:40.966Z,28.43
2022-12-15T00:35:27.024Z,27.63
2022-12-15T00:38:12.298Z,26.37
2022-12-15T00:40:38.969Z,27.70
2022-12-15T00:43:05.844Z,29.57
2022-12-15T00:45:51.370Z,28.90
2022-12-15T00:48:18.130Z,27.93
2022-12-15T00:50:54.267Z,29.20
2022-12-15T00:53:41.517Z,30.33
2022-12-15T00:56:28.230Z,25.77
2022-12-15T00:59:13.722Z,28.00
2022-12-15T01:01:59.538Z,27.87
2022-12-15T01:04:45.562Z,27.33
2022-12-15T01:07:31.065Z,29.27
2022-12-15T01:10:16.745Z,28.17
2022-12-15T01:13:02.188Z,24.03
2022-12-15T01:15:47.871Z,30.20
2022-12-15T01:18:33.118Z,30.23
2022-12-15T01:21:01.828Z,27.13
2022-12-15T01:23:29.182Z,26.43
2022-12-15T01:25:56.197Z,30.17
2022-12-15T01:28:23.433Z,31.00
2022-12-15T01:30:50.948Z,29.70
2022-12-15T01:33:18.806Z,28.80
2022-12-15T01:35:49.549Z,28.83
2022-12-15T01:38:16.299Z,28.83
2022-12-15T01:41:05.019Z,28.47
2022-12-15T01:43:37.282Z,33.90
2022-12-15T01:46:09.817Z,30.97
2022-12-15T01:48:42.508Z,28.67
2022-12-15T01:51:33.602Z,31.00
2022-12-15T01:54:00.428Z,27.53
2022-12-15T01:56:33.847Z,28.50
2022-12-15T01:59:07.602Z,26.30
2022-12-15T02:01:34.776Z,26.67
2022-12-15T02:04:02.326Z,29.60
2022-12-15T02:06:29.764Z,27.37
2022-12-15T02:08:58.647Z,27.40
2022-12-15T02:11:42.882Z,29.90
2022-12-15T02:14:11.580Z,29.73
2022-12-15T02:17:14.399Z,30.23
2022-12-15T02:20:05.169Z,28.70
2022-12-15T02:22:56.869Z,28.87
2022-12-15T02:25:45.568Z,26.37
2022-12-15T02:28:42.855Z,28.00
2022-12-15T02:31:35.542Z,28.50
2022-12-15T02:34:13.432Z,27.37
2022-12-15T02:36:44.585Z,30.20
2022-12-15T02:39:14.910Z,27.10
2022-12-15T02:41:44.710Z,30.00
2022-12-15T02:44:22.756Z,29.33
2022-12-15T02:47:08.518Z,29.33
2022-12-15T02:50:04.681Z,32.80
2022-12-15T02:52:49.488Z,31.07
2022-12-15T02:55:29.550Z,31.30
2022-12-15T02:58:08.388Z,32.07
2022-12-15T03:00:41.126Z,31.43
2022-12-15T03:03:08.516Z,31.63
2022-12-15T03:05:35.815Z,31.40
2022-12-15T03:08:02.853Z,30.90
2022-12-15T03:10:29.702Z,30.10
2022-12-15T03:12:56.369Z,32.43
2022-12-15T03:15:23.160Z,31.27
2022-12-15T03:17:49.938Z,28.43
2022-12-15T03:20:16.707Z,28.03
2022-12-15T03:22:44.593Z,28.50
2022-12-15T03:25:11.292Z,30.53
2022-12-15T03:27:38.058Z,26.63
2022-12-15T03:30:06.075Z,27.50
2022-12-15T03:32:32.787Z,33.93
2022-12-15T03:35:01.078Z,65.60
2022-12-15T03:37:28.166Z,63.07
2022-12-15T03:39:54.939Z,63.17
2022-12-15T03:42:41.753Z,38.87
2022-12-15T03:45:08.925Z,29.97
2022-12-15T03:47:35.623Z,28.53
2022-12-15T03:50:02.398Z,32.70
2022-12-15T03:52:29.087Z,33.00
2022-12-15T03:54:55.761Z,34.07
2022-12-15T03:57:23.291Z,31.37
2022-12-15T03:59:50.099Z,29.60
2022-12-15T04:02:17.261Z,33.40
2022-12-15T04:04:44.333Z,35.30
2022-12-15T04:07:11.149Z,38.47
2022-12-15T04:09:37.973Z,36.20
2022-12-15T04:12:05.007Z,39.77
2022-12-15T04:14:31.887Z,35.80
2022-12-15T04:16:58.696Z,38.17
2022-12-15T04:19:43.910Z,35.90
2022-12-15T04:22:14.930Z,42.87
2022-12-15T04:25:03.228Z,39.93
2022-12-15T04:27:48.774Z,37.17
2022-12-15T04:30:34.592Z,41.60
2022-12-15T04:33:21.093Z,39.27
2022-12-15T04:36:09.209Z,37.33
2022-12-15T04:38:54.807Z,41.50
2022-12-15T04:41:41.958Z,40.93
2022-12-15T04:44:29.106Z,36.57
2022-12-15T04:47:14.583Z,43.77
2022-12-15T04:49:59.972Z,37.93
2022-12-15T04:52:46.492Z,37.77
2022-12-15T04:55:32.058Z,37.73
2022-12-15T04:58:17.400Z,37.43
2022-12-15T05:01:02.813Z,38.10
2022-12-15T05:03:48.161Z,40.70
2022-12-15T05:06:33.656Z,41.90
2022-12-15T05:09:19.270Z,40.80
2022-12-15T05:12:04.762Z,41.23
2022-12-15T05:14:50.364Z,40.97
2022-12-15T05:17:39.917Z,37.30
2022-12-15T05:20:27.556Z,43.10
2022-12-15T05:23:14.155Z,38.87
2022-12-15T05:26:00.222Z,36.63
2022-12-15T05:28:46.202Z,35.70
2022-12-15T05:31:32.295Z,36.93
2022-12-15T05:34:04.799Z,37.27
2022-12-15T05:36:32.807Z,41.30
2022-12-15T05:38:59.652Z,41.40
2022-12-15T05:41:26.909Z,34.73
2022-12-15T05:43:53.790Z,40.40
2022-12-15T05:46:20.755Z,40.23
2022-12-15T05:48:47.731Z,38.80
2022-12-15T05:51:15.059Z,37.73
2022-12-15T05:53:42.582Z,41.67
2022-12-15T05:56:11.960Z,35.53
2022-12-15T05:58:44.807Z,32.83
2022-12-15T06:01:15.569Z,34.00
2022-12-15T06:03:43.068Z,35.30
2022-12-15T06:06:11.405Z,34.77
2022-12-15T06:08:39.732Z,32.67
2022-12-15T06:11:06.992Z,35.07
2022-12-15T06:13:37.026Z,34.20
2022-12-15T06:16:15.692Z,39.10
2022-12-15T06:18:50.143Z,35.37
2022-12-15T06:21:23.697Z,35.63
2022-12-15T06:23:51.342Z,34.83
2022-12-15T06:26:25.437Z,34.50
2022-12-15T06:28:54.355Z,35.23
2022-12-15T06:31:25.467Z,33.53
2022-12-15T06:34:01.697Z,39.33
2022-12-15T06:36:30.718Z,38.73
2022-12-15T06:39:02.220Z,33.17
2022-12-15T06:41:32.257Z,35.80
2022-12-15T06:44:00.206Z,37.47
2022-12-15T06:46:29.040Z,34.27
2022-12-15T06:48:56.100Z,34.97
2022-12-15T06:51:23.082Z,35.50
2022-12-15T06:53:54.115Z,31.70
2022-12-15T06:56:27.284Z,33.13
2022-12-15T06:58:59.353Z,38.33
2022-12-15T07:01:26.370Z,36.77
2022-12-15T07:03:54.099Z,32.23
2022-12-15T07:06:21.410Z,34.70
2022-12-15T07:08:53.896Z,36.23
2022-12-15T07:11:21.900Z,35.97
2022-12-15T07:13:50.756Z,39.77
2022-12-15T07:16:18.142Z,36.03
2022-12-15T07:18:45.276Z,35.60
2022-12-15T07:21:12.654Z,35.70
2022-12-15T07:23:54.127Z,38.07
2022-12-15T07:26:21.881Z,43.17
2022-12-15T07:28:48.626Z,34.43
2022-12-15T07:31:19.511Z,35.17
2022-12-15T07:33:48.203Z,32.70
2022-12-15T07:36:15.395Z,34.77
2022-12-15T07:38:42.213Z,36.57
2022-12-15T07:41:10.303Z,33.67
2022-12-15T07:43:38.127Z,35.27
2022-12-15T07:46:06.205Z,36.27
2022-12-15T07:48:33.444Z,34.90
2022-12-15T07:51:11.069Z,36.37
2022-12-15T07:53:42.506Z,34.97
2022-12-15T07:56:10.425Z,36.37
2022-12-15T07:58:38.276Z,37.50
2022-12-15T08:01:07.411Z,36.93
2022-12-15T08:03:35.680Z,36.90
2022-12-15T08:06:20.439Z,37.20
2022-12-15T08:08:50.490Z,36.13
2022-12-15T08:11:20.809Z,35.40
2022-12-15T08:14:04.998Z,33.37
2022-12-15T08:16:34.851Z,35.80
2022-12-15T08:19:02.348Z,33.93
2022-12-15T08:21:31.195Z,37.60
2022-12-15T08:23:58.083Z,35.90
2022-12-15T08:26:30.026Z,34.07
2022-12-15T08:29:11.767Z,38.43
2022-12-15T08:31:44.624Z,38.43
2022-12-15T08:34:11.408Z,35.53
2022-12-15T08:36:38.259Z,40.57
2022-12-15T08:39:05.211Z,40.67
2022-12-15T08:41:33.065Z,40.43
2022-12-15T08:44:01.706Z,39.40
2022-12-15T08:46:33.815Z,38.77
2022-12-15T08:49:01.955Z,36.10
2022-12-15T08:51:30.568Z,35.67
2022-12-15T08:53:58.925Z,36.80
2022-12-15T08:56:26.661Z,37.57
2022-12-15T08:58:59.021Z,34.53
2022-12-15T09:01:27.299Z,33.80
2022-12-15T09:03:55.893Z,32.80
2022-12-15T09:06:25.853Z,34.40
2022-12-15T09:09:00.640Z,39.17
2022-12-15T09:11:28.916Z,33.37
2022-12-15T09:13:55.798Z,36.57
2022-12-15T09:16:23.524Z,37.03
2022-12-15T09:18:53.044Z,34.43
2022-12-15T09:21:23.129Z,36.73
2022-12-15T09:23:52.714Z,35.93
2022-12-15T09:26:21.719Z,33.83
2022-12-15T09:28:50.884Z,37.70
2022-12-15T09:31:23.468Z,36.10
2022-12-15T09:33:53.284Z,36.43
2022-12-15T09:36:20.393Z,35.30
2022-12-15T09:38:47.272Z,35.20
2022-12-15T09:41:14.041Z,31.90
2022-12-15T09:44:07.350Z,35.87
2022-12-15T09:47:29.572Z,35.70
2022-12-15T09:49:58.440Z,37.33
2022-12-15T09:52:43.186Z,31.60
2022-12-15T09:55:21.138Z,35.63
2022-12-15T09:57:56.548Z,34.80
2022-12-15T10:00:37.123Z,34.07
2022-12-15T10:03:40.611Z,34.17
2022-12-15T10:06:29.779Z,32.37
2022-12-15T10:09:08.421Z,34.33
2022-12-15T10:12:03.430Z,35.83
2022-12-15T10:14:38.010Z,32.67
2022-12-15T10:17:14.262Z,33.20
2022-12-15T10:19:45.692Z,32.33
2022-12-15T10:22:23.344Z,31.67
2022-12-15T10:25:11.546Z,34.50
2022-12-15T10:28:02.541Z,32.20
2022-12-15T10:30:29.756Z,33.43
2022-12-15T10:32:59.276Z,30.13
2022-12-15T10:35:30.023Z,34.07
2022-12-15T10:38:06.760Z,33.67
2022-12-15T10:40:50.184Z,29.33
2022-12-15T10:43:26.787Z,26.57
2022-12-15T10:46:14.017Z,30.80
2022-12-15T10:48:42.697Z,28.67
2022-12-15T10:51:32.783Z,29.43
2022-12-15T10:54:05.292Z,33.63
2022-12-15T10:56:34.288Z,30.27
2022-12-15T10:59:23.577Z,28.00
2022-12-15T11:01:51.561Z,26.13
2022-12-15T11:04:32.413Z,27.47
2022-12-15T11:07:01.623Z,30.20
2022-12-15T11:09:37.267Z,34.40
2022-12-15T11:12:43.977Z,30.60
2022-12-15T11:15:31.142Z,32.90
2022-12-15T11:18:35.510Z,33.63
2022-12-15T11:21:11.829Z,33.50
2022-12-15T11:23:38.492Z,31.30
2022-12-15T11:26:46.978Z,37.03
2022-12-15T11:29:30.138Z,32.57
2022-12-15T11:32:01.447Z,33.33
2022-12-15T11:34:46.467Z,32.53
2022-12-15T11:37:40.184Z,35.00
2022-12-15T11:40:39.828Z,33.37
2022-12-15T11:43:25.460Z,33.70
2022-12-15T11:46:17.357Z,33.03
2022-12-15T11:49:11.862Z,38.33
2022-12-15T11:51:52.800Z,34.23
2022-12-15T11:54:19.680Z,33.73
2022-12-15T11:57:21.561Z,34.20
2022-12-15T12:00:06.893Z,36.63
2022-12-15T12:02:52.022Z,32.17
2022-12-15T12:05:31.142Z,36.83
2022-12-15T12:08:09.033Z,30.27
2022-12-15T12:11:02.538Z,33.80
2022-12-15T12:13:43.550Z,34.63
2022-12-15T12:16:28.172Z,33.47
2022-12-15T12:19:02.618Z,37.00
2022-12-15T12:21:43.078Z,32.30
2022-12-15T12:24:09.906Z,36.13
2022-12-15T12:26:50.685Z,35.50
2022-12-15T12:29:28.365Z,33.90
2022-12-15T12:32:04.117Z,33.00
2022-12-15T12:35:30.597Z,35.37
2022-12-15T12:38:07.491Z,33.27
2022-12-15T12:40:40.290Z,36.90
2022-12-15T12:43:14.500Z,34.63
2022-12-15T12:46:04.057Z,32.70
2022-12-15T12:48:40.288Z,31.43
2022-12-15T12:51:12.763Z,34.63
2022-12-15T12:53:39.689Z,32.67
2022-12-15T12:56:06.874Z,34.33
2022-12-15T12:58:33.562Z,28.57
2022-12-15T13:01:25.978Z,33.67
2022-12-15T13:04:13.942Z,34.63
2022-12-15T13:06:40.831Z,33.83
2022-12-15T13:09:16.914Z,36.60
2022-12-15T13:11:52.648Z,35.97
2022-12-15T13:14:34.798Z,34.67
2022-12-15T13:17:27.702Z,30.97
2022-12-15T13:20:00.634Z,34.43
2022-12-15T13:22:35.753Z,29.03
2022-12-15T13:25:23.131Z,32.23
2022-12-15T13:27:57.832Z,30.80
2022-12-15T13:30:25.005Z,31.87
2022-12-15T13:32:54.592Z,30.37
2022-12-15T13:35:31.258Z,34.10
2022-12-15T13:38:03.197Z,33.93
2022-12-15T13:40:35.854Z,33.33
2022-12-15T13:43:05.336Z,28.93
2022-12-15T13:45:42.983Z,32.33
2022-12-15T13:48:35.017Z,34.40
2022-12-15T13:51:26.977Z,32.93
2022-12-15T13:54:04.273Z,34.73
2022-12-15T13:56:58.752Z,41.40
2022-12-15T13:59:35.000Z,36.47
2022-12-15T14:02:02.001Z,32.23
2022-12-15T14:04:28.948Z,33.23
2022-12-15T14:07:00.149Z,33.73
2022-12-15T14:09:36.695Z,35.27
2022-12-15T14:12:06.223Z,32.77
2022-12-15T14:14:36.938Z,29.50
2022-12-15T14:17:09.086Z,32.40
2022-12-15T14:19:41.359Z,32.57
2022-12-15T14:22:29.712Z,31.57
2022-12-15T14:25:04.351Z,29.83
2022-12-15T14:27:33.446Z,26.70
2022-12-15T14:30:25.527Z,28.90
2022-12-15T14:33:09.219Z,33.93
2022-12-15T14:35:40.191Z,24.73
2022-12-15T14:38:13.034Z,27.40
2022-12-15T14:40:41.125Z,24.30
2022-12-15T14:43:17.448Z,23.80
2022-12-15T14:45:44.321Z,26.13
2022-12-15T14:48:40.455Z,24.27
2022-12-15T14:51:11.177Z,27.03
2022-12-15T14:53:40.574Z,23.97
2022-12-15T14:56:27.621Z,22.83
2022-12-15T14:59:04.425Z,24.73
2022-12-15T15:01:57.912Z,24.70
2022-12-15T15:04:31.274Z,22.20
2022-12-15T15:07:07.685Z,26.57
2022-12-15T15:09:43.494Z,26.57
2022-12-15T15:12:17.280Z,24.17
2022-12-15T15:15:00.093Z,22.93
2022-12-15T15:17:37.481Z,25.57
2022-12-15T15:20:16.508Z,23.57
2022-12-15T15:22:46.120Z,27.70
2022-12-15T15:25:23.057Z,22.07
2022-12-15T15:27:50.070Z,25.60
2022-12-15T15:30:20.246Z,26.97
2022-12-15T15:32:58.229Z,27.83
2022-12-15T15:35:30.847Z,26.07
2022-12-15T15:38:27.018Z,24.07
2022-12-15T15:41:00.123Z,27.17
2022-12-15T15:43:28.356Z,28.90
2022-12-15T15:46:02.729Z,23.33
2022-12-15T15:48:39.494Z,23.97
2022-12-15T15:51:08.800Z,26.77
2022-12-15T15:53:36.216Z,29.03
2022-12-15T15:56:06.566Z,28.37
2022-12-15T15:58:35.140Z,33.17
2022-12-15T16:01:06.741Z,28.73
2022-12-15T16:03:36.672Z,27.57
2022-12-15T16:06:06.361Z,26.33
2022-12-15T16:08:36.896Z,27.80
2022-12-15T16:11:03.788Z,25.83
2022-12-15T16:13:30.538Z,26.37
2022-12-15T16:15:57.486Z,30.10
2022-12-15T16:18:24.301Z,26.90
2022-12-15T16:20:52.095Z,29.20
2022-12-15T16:23:22.535Z,27.33
2022-12-15T16:26:00.646Z,31.00
2022-12-15T16:28:32.188Z,27.63
2022-12-15T16:30:59.340Z,27.23
2022-12-15T16:33:26.161Z,27.33
2022-12-15T16:35:53.844Z,24.77
2022-12-15T16:38:25.737Z,29.77
2022-12-15T16:40:52.967Z,27.13
2022-12-15T16:43:24.602Z,30.10
2022-12-15T16:45:53.235Z,29.67
2022-12-15T16:48:21.048Z,26.77
2022-12-15T16:50:53.594Z,25.73
2022-12-15T16:53:29.252Z,30.60
2022-12-15T16:55:58.435Z,25.80
2022-12-15T16:58:27.415Z,29.50
2022-12-15T17:00:54.659Z,29.73
2022-12-15T17:03:28.874Z,29.77
2022-12-15T17:05:58.067Z,30.07
2022-12-15T17:08:51.055Z,31.03
2022-12-15T17:11:24.182Z,27.37
2022-12-15T17:13:52.666Z,25.93
2022-12-15T17:16:21.132Z,30.43
2022-12-15T17:18:49.752Z,25.73
2022-12-15T17:21:19.761Z,29.60
2022-12-15T17:23:50.422Z,31.73
2022-12-15T17:26:29.034Z,29.50
2022-12-15T17:29:00.948Z,31.20
2022-12-15T17:31:34.779Z,32.13
2022-12-15T17:34:02.699Z,26.80
2022-12-15T17:36:29.445Z,28.23
2022-12-15T17:39:01.718Z,32.17
2022-12-15T17:41:58.015Z,30.97
2022-12-15T17:44:39.293Z,29.07
2022-12-15T17:47:08.547Z,27.23
2022-12-15T17:49:37.487Z,26.27
2022-12-15T17:52:18.946Z,28.03
2022-12-15T17:54:45.768Z,31.13
2022-12-15T17:57:12.992Z,29.93
2022-12-15T17:59:39.883Z,26.40
2022-12-15T18:02:08.990Z,28.33
2022-12-15T18:04:35.786Z,28.13
2022-12-15T18:07:02.872Z,28.67
2022-12-15T18:09:31.032Z,27.57
2022-12-15T18:11:58.191Z,28.77
2022-12-15T18:14:25.003Z,24.77
2022-12-15T18:16:51.796Z,29.03
2022-12-15T18:19:18.461Z,25.83
2022-12-15T18:21:45.239Z,30.73
2022-12-15T18:24:17.212Z,29.80
2022-12-15T18:26:44.343Z,25.40
2022-12-15T18:29:14.053Z,28.40
2022-12-15T18:31:41.955Z,26.10
2022-12-15T18:34:13.941Z,25.80
2022-12-15T18:36:41.022Z,26.40
2022-12-15T18:39:20.036Z,26.27
2022-12-15T18:41:48.268Z,25.70
2022-12-15T18:44:33.167Z,25.67
2022-12-15T18:47:00.157Z,25.03
2022-12-15T18:49:26.951Z,27.27
2022-12-15T18:51:53.847Z,25.37
2022-12-15T18:54:23.612Z,25.93
2022-12-15T18:56:50.877Z,29.53
2022-12-15T18:59:19.165Z,26.23
2022-12-15T19:01:48.303Z,25.77
2022-12-15T19:04:15.363Z,26.53
2022-12-15T19:06:43.015Z,27.10
2022-12-15T19:09:21.717Z,23.80
2022-12-15T19:12:08.053Z,24.47
2022-12-15T19:14:41.077Z,26.63
2022-12-15T19:17:30.903Z,29.07
2022-12-15T19:20:16.476Z,24.07
2022-12-15T19:22:43.974Z,24.23
2022-12-15T19:25:14.057Z,26.67
2022-12-15T19:27:41.023Z,25.23
2022-12-15T19:30:19.467Z,28.80
2022-12-15T19:32:46.585Z,22.93
2022-12-15T19:35:13.467Z,25.67
2022-12-15T19:37:42.942Z,29.30
2022-12-15T19:40:22.214Z,24.17
2022-12-15T19:42:49.671Z,26.23
2022-12-15T19:45:19.690Z,27.73
2022-12-15T19:47:46.881Z,24.60
2022-12-15T19:50:28.802Z,26.80
2022-12-15T19:53:01.909Z,22.60
2022-12-15T19:55:34.754Z,26.43
2022-12-15T19:58:25.261Z,26.87
2022-12-15T20:00:57.014Z,26.47
2022-12-15T20:03:24.991Z,22.53
2022-12-15T20:05:55.710Z,28.23
2022-12-15T20:08:25.268Z,24.03
2022-12-15T20:10:53.835Z,26.33
2022-12-15T20:13:22.178Z,31.63
2022-12-15T20:15:49.427Z,25.97
2022-12-15T20:18:16.202Z,24.47
2022-12-15T20:20:45.443Z,26.20
2022-12-15T20:23:17.257Z,24.80
2022-12-15T20:25:45.032Z,23.83
2022-12-15T20:28:21.659Z,23.93
2022-12-15T20:30:49.473Z,28.33
2022-12-15T20:33:17.133Z,24.67
2022-12-15T20:35:46.424Z,25.20
2022-12-15T20:38:27.683Z,24.67
2022-12-15T20:40:55.652Z,23.37
2022-12-15T20:43:26.085Z,27.60
2022-12-15T20:46:23.182Z,24.07
2022-12-15T20:48:51.716Z,23.33
2022-12-15T20:51:30.548Z,21.63
2022-12-15T20:54:00.785Z,24.40
2022-12-15T20:56:27.733Z,26.07
2022-12-15T20:58:57.164Z,21.77
2022-12-15T21:01:33.645Z,24.27
2022-12-15T21:04:03.497Z,21.37
2022-12-15T21:06:30.963Z,27.13
2022-12-15T21:08:57.715Z,23.10
2022-12-15T21:11:27.416Z,24.43
2022-12-15T21:13:56.717Z,23.80
2022-12-15T21:16:26.653Z,22.10
2022-12-15T21:21:47.670Z,23.03
2022-12-15T21:24:24.660Z,26.20
2022-12-15T21:26:52.199Z,22.97
2022-12-15T21:29:21.777Z,22.63
2022-12-15T21:31:49.134Z,22.10
2022-12-15T21:34:16.191Z,21.90
2022-12-15T21:36:45.447Z,25.87
2022-12-15T21:39:20.284Z,22.87
2022-12-15T21:41:46.910Z,24.20
2022-12-15T21:44:14.856Z,23.37
2022-12-15T21:46:41.961Z,22.07
2022-12-15T21:49:14.678Z,20.17
2022-12-15T21:52:04.387Z,23.03
2022-12-15T21:54:33.200Z,22.03
2022-12-15T21:57:00.310Z,23.23
2022-12-15T21:59:30.493Z,21.23
2022-12-15T22:01:59.212Z,20.83
2022-12-15T22:04:30.366Z,23.00
2022-12-15T22:06:57.069Z,24.50
2022-12-15T22:09:23.941Z,22.83
2022-12-15T22:11:53.791Z,24.40
2022-12-15T22:14:27.785Z,21.37
2022-12-15T22:16:55.225Z,22.70
2022-12-15T22:19:22.815Z,21.53
2022-12-15T22:21:50.040Z,21.23
2022-12-15T22:24:16.793Z,24.97
2022-12-15T22:26:43.669Z,26.90
2022-12-15T22:29:16.679Z,25.20
2022-12-15T22:31:43.781Z,26.70
2022-12-15T22:34:17.060Z,27.87
2022-12-15T22:36:44.376Z,23.17
2022-12-15T22:39:11.383Z,23.40
2022-12-15T22:41:44.646Z,26.90
2022-12-15T22:44:21.233Z,24.63
2022-12-15T22:46:50.297Z,27.97
2022-12-15T22:49:24.126Z,23.80
2022-12-15T22:51:51.018Z,24.50
2022-12-15T22:54:23.951Z,26.07
2022-12-15T22:57:04.219Z,25.33
2022-12-15T22:59:43.968Z,23.50
2022-12-15T23:02:11.326Z,25.60
2022-12-15T23:04:40.137Z,27.27
2022-12-15T23:07:12.289Z,25.97
2022-12-15T23:09:39.051Z,27.00
2022-12-15T23:12:05.994Z,23.93
2022-12-15T23:14:51.507Z,22.63
2022-12-15T23:17:18.392Z,23.90
2022-12-15T23:19:46.205Z,25.90
2022-12-15T23:22:18.018Z,24.53
2022-12-15T23:24:44.655Z,23.10
2022-12-15T23:27:11.839Z,25.93
2022-12-15T23:29:38.495Z,25.37
2022-12-15T23:32:06.235Z,27.53
2022-12-15T23:34:32.979Z,25.40
2022-12-15T23:36:59.873Z,25.27
2022-12-15T23:39:26.673Z,25.83
2022-12-15T23:41:53.500Z,25.60
2022-12-15T23:44:20.166Z,24.67
2022-12-15T23:46:47.014Z,26.60
2022-12-15T23:49:13.733Z,23.53
2022-12-15T23:51:40.407Z,23.63
2022-12-15T23:54:07.136Z,24.07
2022-12-15T23:56:34.034Z,26.90
2022-12-15T23:59:00.689Z,25.10
